Flight Track Log - Related Links

Times and Time Zones

All times are in EDT time to prevent confusion due to time zone crossing. See the UPS1337 flight status page for this flight to view local times or setup timezone preferences in your user account.


Time Position Orientation Groundspeed Altitude Reporting Facility
EDT Latitude Longitude Course Direction KTS MPH feet Rate Location/Type
Fri 11:58:10 PM 35.8708 -78.8089 227° Southwest 170 196 1,500  Level Washington Center
Fri 11:58:37 PM 35.8536 -78.8314 236° Southwest 172 198 2,600 2,400 Climbing Washington Center
Fri 11:58:40 PM 35.8514 -78.8286 135° Southeast 171 197 2,700 2,656 Climbing Washington Center
Fri 11:59:38 PM 35.8103 -78.8833 227° Southwest 194 223 5,300 3,362 Climbing Washington Center
Sat 12:00:36 AM 35.8100 -78.9728 270° West 231 266 9,200 2,949 Climbing Washington Center
Sat 12:01:36 AM 35.8194 -79.0758 276° West 265 305 11,100 2,350 Climbing Washington Center
Sat 12:02:36 AM 35.8306 -79.1992 276° West 335 386 13,900 2,724 Climbing Washington Center
Sat 12:04:19 AM 35.8239 -79.4364 268° West 396 456 18,500 2,650 Climbing Atlanta Center
Sat 12:05:19 AM 35.8103 -79.5756 263° West 409 471 21,100 2,350 Climbing Atlanta Center
Sat 12:06:19 AM 35.7858 -79.7100 257° West 409 471 23,200 2,100 Climbing Atlanta Center
Sat 12:07:19 AM 35.7633 -79.8442 258° West 421 484 25,300 1,950 Climbing Atlanta Center
Sat 12:08:19 AM 35.7725 -79.9872 275° West 428 493 27,100 2,050 Climbing Atlanta Center
Sat 12:09:19 AM 35.8311 -80.1275 297° West 433 498 29,400 2,250 Climbing Atlanta Center
Sat 12:10:19 AM 35.8856 -80.2661 296° West 438 504 31,600 1,300 Climbing Atlanta Center
Sat 12:11:19 AM 35.9464 -80.4144 297° West 448 516 32,000 200 Climbing Atlanta Center
Sat 12:12:19 AM 36.0003 -80.5456 297° West 440 506 32,000  Level Atlanta Center
Sat 12:13:19 AM 36.0494 -80.6642 297° West 440 506 32,000  Level Atlanta Center
Sat 12:14:19 AM 36.1031 -80.8006 296° West 435 501 32,000  Level Atlanta Center
Sat 12:15:19 AM 36.1567 -80.9297 297° West 435 501 32,000  Level Atlanta Center
Sat 12:16:19 AM 36.2078 -81.0642 295° West 435 501 32,000  Level Atlanta Center
Sat 12:18:01 AM 36.2931 -81.2797 296° West 426 490 32,000  Level Indianapolis Center
Sat 12:19:02 AM 36.3522 -81.4314 296° West 424 488 32,000  Level Indianapolis Center
Sat 12:20:03 AM 36.4022 -81.5622 295° West 422 486 32,000  Level Indianapolis Center
Sat 12:21:03 AM 36.4544 -81.6947 296° West 422 486 32,000  Level Indianapolis Center
Sat 12:22:04 AM 36.5056 -81.8272 296° West 423 487 32,000  Level Indianapolis Center
Sat 12:23:05 AM 36.5567 -81.9586 296° West 423 487 32,000  Level Indianapolis Center
Sat 12:24:05 AM 36.6078 -82.0917 296° West 423 487 32,000  Level Indianapolis Center
Sat 12:25:06 AM 36.6594 -82.2256 296° West 425 489 32,000  Level Indianapolis Center
Sat 12:26:07 AM 36.7100 -82.3608 295° West 427 491 32,000  Level Indianapolis Center
Sat 12:27:08 AM 36.7619 -82.4975 295° West 430 495 32,000  Level Indianapolis Center
Sat 12:28:08 AM 36.8125 -82.6311 295° West 430 495 32,000  Level Indianapolis Center
Sat 12:29:09 AM 36.8619 -82.7633 295° West 424 488 32,000  Level Indianapolis Center
Sat 12:30:09 AM 36.9067 -82.8839 295° West 424 488 32,000  Level Indianapolis Center
Sat 12:31:10 AM 36.9672 -83.0453 295° West 426 490 32,000  Level Indianapolis Center
Sat 12:32:11 AM 37.0164 -83.1778 295° West 426 490 32,000  Level Indianapolis Center
Sat 12:33:11 AM 37.0658 -83.3122 295° West 425 489 32,000  Level Indianapolis Center
Sat 12:34:12 AM 37.1156 -83.4464 295° West 425 489 32,000  Level Indianapolis Center
Sat 12:35:13 AM 37.1642 -83.5806 294° West 425 489 32,000  Level Indianapolis Center
Sat 12:36:13 AM 37.2139 -83.7156 295° West 425 489 32,000 -2,000 Level Indianapolis Center
Sat 12:42:07 AM 37.4847 -84.4693 294° West 424 488 18,200 -2,331 Descending FlightAware ADS-B
Sat 12:43:28 AM 37.5577 -84.6752 294° West 408 470 15,100 -1,754 Descending FlightAware ADS-B
Sat 12:46:51 AM 37.7495 -85.0839 311° West 323 372 9,900 -1,351 Descending FlightAware ADS-B
Sat 12:47:50 AM 37.7792 -85.1766 289° West 280 322 9,200 -1,160 Descending FlightAware ADS-B
Sat 12:48:50 AM 37.8044 -85.2704 288° West 275 316 7,600 -1,587 Descending FlightAware ADS-B
Sat 12:49:51 AM 37.8291 -85.3631 289° West 273 314 6,000 -1,587 Descending FlightAware ADS-B
Sat 12:50:51 AM 37.8528 -85.4532 288° West 275 316 4,400 -1,513 Descending FlightAware ADS-B
Sat 12:51:50 AM 37.8782 -85.5441 304° West 275 316 3,000 -750 Descending FlightAware ADS-B
Sat 12:52:51 AM 37.9317 -85.6123 316° Northwest 266 306 2,900 -50 Descending FlightAware ADS-B
Sat 12:53:50 AM 37.9858 -85.6624 342° North 234 269 2,900  Level FlightAware ADS-B
Sat 12:54:50 AM 38.0453 -85.6824 346° North 204 235 2,900 -500 Level FlightAware ADS-B
Sat 12:55:50 AM 38.0950 -85.7002 345° North 159 183 1,900 -917 Descending FlightAware ADS-B
Sat 12:56:02 AM 38.1000 -85.7000 208° Southwest 166 191 1,800 -787 Descending Louisville TRACON
Sat 12:56:51 AM 38.1339 -85.7129 346° North 129 148 1,100 -857 Descending FlightAware ADS-B
Sat 12:58:00 AM 38.1741 -85.7365 211° Southwest  Level Estimated
Sat 01:01:00 AM 38.1667 -85.7333 208° Southwest  Level FlightAware Approximate
Sat 01:05:00 AM 38.1741 -85.7365 208° Southwest  Level Estimated

Login

Don't have an account? Register now (free) for customized features, flight alerts, and more!